Time,TemperatureF,DewpointF,PressureIn,WindDirection,WindDirectionDegrees,WindSpeedMPH,WindSpeedGustMPH,Humidity,HourlyPrecipIn,Conditions,Clouds,dailyrainin,SoftwareType,DateUTC
2013-06-23 00:00:00,57.0,55.1,30.24,NE,45,1.7,1.7,93,0.00,,,0.00,WUHU216HW,2013-06-23 04:00:00,
2013-06-23 00:01:00,57.0,55.1,30.24,NE,45,1.7,1.7,93,0.00,,,0.00,WUHU216HW,2013-06-23 04:01:00,
2013-06-23 00:03:00,57.0,55.0,30.24,NE,45,0.0,1.7,93,0.00,,,0.00,WUHU216HW,2013-06-23 04:03:00,
2013-06-23 00:08:00,57.2,55.1,30.24,NNE,23,2.9,3.1,93,0.00,,,0.00,WUHU216HW,2013-06-23 04:08:00,
2013-06-23 00:13:00,57.3,55.3,30.24,NNE,23,4.0,4.0,93,0.00,,,0.00,WUHU216HW,2013-06-23 04:13:00,
2013-06-23 00:18:00,57.3,55.3,30.23,NNE,23,4.6,4.6,93,0.00,,,0.00,WUHU216HW,2013-06-23 04:18:00,
2013-06-23 00:23:00,57.3,55.3,30.23,NNE,23,5.5,6.0,93,0.00,,,0.00,WUHU216HW,2013-06-23 04:23:00,
2013-06-23 00:29:00,57.3,55.6,30.23,North,0,3.8,6.7,94,0.00,,,0.00,WUHU216HW,2013-06-23 04:29:00,
2013-06-23 00:34:00,57.3,55.6,30.22,NNE,23,3.8,10.5,94,0.00,,,0.00,WUHU216HW,2013-06-23 04:34:00,
2013-06-23 00:39:00,57.3,55.6,30.22,NNE,23,3.8,10.5,94,0.00,,,0.00,WUHU216HW,2013-06-23 04:39:00,
2013-06-23 00:44:00,57.5,55.8,30.22,NNE,23,4.2,6.4,94,0.00,,,0.00,WUHU216HW,2013-06-23 04:44:00,
2013-06-23 00:49:00,57.5,55.8,30.21,NNE,23,7.1,7.1,94,0.00,,,0.00,WUHU216HW,2013-06-23 04:49:00,
2013-06-23 00:54:00,57.3,55.6,30.21,NNE,23,4.0,7.1,94,0.00,,,0.00,WUHU216HW,2013-06-23 04:54:00,
2013-06-23 00:59:00,57.3,55.6,30.21,WNW,293,0.0,6.2,94,0.00,,,0.00,WUHU216HW,2013-06-23 04:59:00,
2013-06-23 01:04:00,57.3,55.6,30.21,WNW,293,0.0,4.0,94,0.00,,,0.00,WUHU216HW,2013-06-23 05:04:00,
2013-06-23 01:09:00,57.0,55.2,30.22,NW,315,0.0,0.0,94,0.00,,,0.00,WUHU216HW,2013-06-23 05:09:00,
2013-06-23 01:15:00,57.0,55.2,30.22,WNW,293,0.0,0.0,94,0.00,,,0.00,WUHU216HW,2013-06-23 05:15:00,
2013-06-23 01:20:00,57.0,55.2,30.22,WNW,293,0.0,0.0,94,0.00,,,0.00,WUHU216HW,2013-06-23 05:20:00,
2013-06-23 01:25:00,56.8,55.1,30.21,WNW,293,0.0,0.0,94,0.00,,,0.00,WUHU216HW,2013-06-23 05:25:00,
2013-06-23 01:30:00,56.8,55.1,30.21,NNW,338,0.0,0.0,94,0.00,,,0.00,WUHU216HW,2013-06-23 05:30:00,
2013-06-23 01:35:00,56.8,55.1,30.21,WSW,248,0.0,0.0,94,0.00,,,0.00,WUHU216HW,2013-06-23 05:35:00,
2013-06-23 01:40:00,57.0,55.2,30.21,WSW,248,0.0,0.0,94,0.00,,,0.00,WUHU216HW,2013-06-23 05:40:00,
2013-06-23 01:45:00,57.0,55.2,30.20,WSW,248,0.0,0.0,94,0.00,,,0.00,WUHU216HW,2013-06-23 05:45:00,
2013-06-23 01:50:00,57.0,55.2,30.20,WSW,248,0.0,0.0,94,0.00,,,0.00,WUHU216HW,2013-06-23 05:50:00,
2013-06-23 01:56:00,57.2,55.4,30.20,WSW,248,0.0,0.0,94,0.00,,,0.00,WUHU216HW,2013-06-23 05:56:00,
2013-06-23 02:01:00,57.3,55.6,30.19,WSW,248,0.0,0.0,94,0.00,,,0.00,WUHU216HW,2013-06-23 06:01:00,
2013-06-23 02:02:00,57.3,55.6,30.20,WSW,248,0.0,0.0,94,0.00,,,0.00,WUHU216HW,2013-06-23 06:02:00,
2013-06-23 02:07:00,57.3,55.6,30.20,WSW,248,0.0,0.0,94,0.00,,,0.00,WUHU216HW,2013-06-23 06:07:00,
2013-06-23 02:12:00,57.7,56.0,30.19,SSW,203,0.0,0.0,94,0.00,,,0.00,WUHU216HW,2013-06-23 06:12:00,
2013-06-23 02:17:00,57.7,56.0,30.20,SSW,203,0.0,0.0,94,0.00,,,0.00,WUHU216HW,2013-06-23 06:17:00,
2013-06-23 02:22:00,57.9,56.1,30.19,SW,225,0.0,0.0,94,0.00,,,0.00,WUHU216HW,2013-06-23 06:22:00,
2013-06-23 02:27:00,57.9,56.1,30.19,West,270,0.0,0.0,94,0.00,,,0.00,WUHU216HW,2013-06-23 06:27:00,
2013-06-23 02:33:00,57.9,56.1,30.19,West,270,0.0,0.0,94,0.00,,,0.00,WUHU216HW,2013-06-23 06:33:00,
2013-06-23 02:38:00,57.9,56.1,30.19,West,270,0.0,0.0,94,0.00,,,0.00,WUHU216HW,2013-06-23 06:38:00,
2013-06-23 02:43:00,57.9,56.1,30.18,WNW,293,0.0,0.0,94,0.00,,,0.00,WUHU216HW,2013-06-23 06:43:00,
2013-06-23 02:48:00,57.9,56.1,30.18,WNW,293,0.0,0.0,94,0.00,,,0.00,WUHU216HW,2013-06-23 06:48:00,
2013-06-23 02:53:00,57.9,56.1,30.19,SSE,158,0.0,0.0,94,0.00,,,0.00,WUHU216HW,2013-06-23 06:53:00,
2013-06-23 02:58:00,57.9,56.1,30.19,NW,315,0.0,0.0,94,0.00,,,0.00,WUHU216HW,2013-06-23 06:58:00,
2013-06-23 03:03:00,57.9,56.1,30.20,WNW,293,0.0,0.0,94,0.00,,,0.00,WUHU216HW,2013-06-23 07:03:00,
2013-06-23 03:08:00,57.9,56.1,30.20,West,270,0.0,0.0,94,0.00,,,0.00,WUHU216HW,2013-06-23 07:08:00,
2013-06-23 03:13:00,57.9,56.1,30.20,WNW,293,0.0,0.0,94,0.00,,,0.00,WUHU216HW,2013-06-23 07:13:00,
2013-06-23 03:18:00,57.7,56.0,30.20,WNW,293,0.0,0.0,94,0.00,,,0.00,WUHU216HW,2013-06-23 07:18:00,
2013-06-23 03:24:00,57.5,55.8,30.20,WSW,248,0.0,0.0,94,0.00,,,0.00,WUHU216HW,2013-06-23 07:24:00,
2013-06-23 03:29:00,57.5,55.6,30.20,WSW,248,0.0,0.0,94,0.00,,,0.00,WUHU216HW,2013-06-23 07:29:00,
2013-06-23 03:34:00,57.3,55.6,30.20,WSW,248,0.0,0.0,94,0.00,,,0.00,WUHU216HW,2013-06-23 07:34:00,
2013-06-23 03:39:00,57.3,55.6,30.20,WSW,248,0.0,0.0,94,0.00,,,0.00,WUHU216HW,2013-06-23 07:39:00,
2013-06-23 03:44:00,57.0,55.2,30.20,WSW,248,0.0,0.0,94,0.00,,,0.00,WUHU216HW,2013-06-23 07:44:00,
2013-06-23 03:49:00,56.8,55.1,30.19,WSW,248,0.0,0.0,94,0.00,,,0.00,WUHU216HW,2013-06-23 07:49:00,
2013-06-23 03:54:00,56.8,55.1,30.19,West,270,0.0,0.0,94,0.00,,,0.00,WUHU216HW,2013-06-23 07:54:00,
2013-06-23 03:59:00,56.6,54.9,30.19,West,270,0.0,0.0,94,0.00,,,0.00,WUHU216HW,2013-06-23 07:59:00,
2013-06-23 04:05:00,56.6,54.9,30.19,West,270,0.0,0.0,94,0.00,,,0.00,WUHU216HW,2013-06-23 08:05:00,
2013-06-23 04:10:00,56.8,55.1,30.20,West,270,0.0,0.0,94,0.00,,,0.00,WUHU216HW,2013-06-23 08:10:00,
2013-06-23 04:15:00,56.8,55.1,30.20,West,270,0.0,0.0,94,0.00,,,0.00,WUHU216HW,2013-06-23 08:15:00,
2013-06-23 04:20:00,56.8,55.1,30.19,WSW,248,0.0,0.0,94,0.00,,,0.00,WUHU216HW,2013-06-23 08:20:00,
2013-06-23 04:25:00,56.8,55.1,30.19,SW,225,0.0,0.0,94,0.00,,,0.00,WUHU216HW,2013-06-23 08:25:00,
2013-06-23 04:30:00,57.0,55.2,30.19,SW,225,0.0,0.0,94,0.00,,,0.00,WUHU216HW,2013-06-23 08:30:00,
2013-06-23 04:35:00,56.8,55.1,30.19,West,270,0.0,0.0,94,0.00,,,0.00,WUHU216HW,2013-06-23 08:35:00,
2013-06-23 04:40:00,56.8,55.1,30.19,West,270,0.0,0.0,94,0.00,,,0.00,WUHU216HW,2013-06-23 08:40:00,
2013-06-23 04:45:00,56.8,55.1,30.19,SSW,203,0.0,0.0,94,0.00,,,0.00,WUHU216HW,2013-06-23 08:45:00,
2013-06-23 04:51:00,56.8,55.1,30.20,WSW,248,0.0,0.0,94,0.00,,,0.00,WUHU216HW,2013-06-23 08:51:00,
2013-06-23 04:56:00,56.6,54.9,30.20,West,270,0.0,0.0,94,0.00,,,0.00,WUHU216HW,2013-06-23 08:56:00,
2013-06-23 05:01:00,56.4,54.7,30.19,West,270,0.0,0.0,94,0.00,,,0.00,WUHU216HW,2013-06-23 09:01:00,
2013-06-23 05:06:00,56.4,54.7,30.19,West,270,0.0,0.0,94,0.00,,,0.00,WUHU216HW,2013-06-23 09:06:00,
2013-06-23 05:11:00,56.4,54.7,30.18,West,270,0.0,0.0,94,0.00,,,0.00,WUHU216HW,2013-06-23 09:11:00,
2013-06-23 05:16:00,56.4,54.7,30.19,West,270,0.0,0.0,94,0.00,,,0.00,WUHU216HW,2013-06-23 09:16:00,
2013-06-23 05:21:00,56.4,54.7,30.18,West,270,0.0,0.0,94,0.00,,,0.00,WUHU216HW,2013-06-23 09:21:00,
2013-06-23 05:26:00,56.4,54.7,30.18,West,270,0.0,0.0,94,0.00,,,0.00,WUHU216HW,2013-06-23 09:26:00,
2013-06-23 05:32:00,56.4,54.7,30.18,West,270,0.0,0.0,94,0.00,,,0.00,WUHU216HW,2013-06-23 09:32:00,
2013-06-23 05:37:00,56.4,54.7,30.17,West,270,0.0,0.0,94,0.00,,,0.00,WUHU216HW,2013-06-23 09:37:00,
2013-06-23 05:42:00,56.4,54.7,30.16,West,270,0.0,0.0,94,0.00,,,0.00,WUHU216HW,2013-06-23 09:42:00,
2013-06-23 05:47:00,56.3,54.5,30.17,West,270,0.0,0.0,94,0.00,,,0.00,WUHU216HW,2013-06-23 09:47:00,
2013-06-23 05:52:00,56.4,54.7,30.17,West,270,0.0,0.0,94,0.00,,,0.00,WUHU216HW,2013-06-23 09:52:00,
2013-06-23 05:57:00,56.4,54.7,30.17,West,270,0.0,0.0,94,0.00,,,0.00,WUHU216HW,2013-06-23 09:57:00,
2013-06-23 06:02:00,56.3,54.5,30.17,West,270,0.0,0.0,94,0.00,,,0.00,WUHU216HW,2013-06-23 10:02:00,
2013-06-23 06:07:00,56.4,54.7,30.17,West,270,0.0,0.0,94,0.00,,,0.00,WUHU216HW,2013-06-23 10:07:00,
2013-06-23 06:12:00,56.4,54.7,30.17,West,270,0.0,0.0,94,0.00,,,0.00,WUHU216HW,2013-06-23 10:12:00,
2013-06-23 06:17:00,56.6,55.1,30.17,West,270,0.0,0.0,94,0.00,,,0.00,WUHU216HW,2013-06-23 10:17:00,
2013-06-23 06:23:00,57.0,55.2,30.18,West,270,0.0,0.0,94,0.00,,,0.00,WUHU216HW,2013-06-23 10:23:00,
2013-06-23 06:28:00,57.0,55.2,30.18,West,270,0.0,0.0,94,0.00,,,0.00,WUHU216HW,2013-06-23 10:28:00,
2013-06-23 06:33:00,57.0,55.2,30.18,West,270,0.0,0.0,94,0.00,,,0.00,WUHU216HW,2013-06-23 10:33:00,
2013-06-23 06:38:00,57.2,55.4,30.18,West,270,0.0,0.0,94,0.00,,,0.00,WUHU216HW,2013-06-23 10:38:00,
2013-06-23 06:43:00,57.3,55.6,30.18,West,270,0.0,0.0,94,0.00,,,0.00,WUHU216HW,2013-06-23 10:43:00,
2013-06-23 06:48:00,57.7,56.0,30.17,West,270,0.0,0.0,94,0.00,,,0.00,WUHU216HW,2013-06-23 10:48:00,
2013-06-23 06:53:00,57.9,56.1,30.18,West,270,0.0,0.0,94,0.00,,,0.00,WUHU216HW,2013-06-23 10:53:00,
2013-06-23 06:58:00,58.2,56.5,30.17,West,270,0.0,0.0,94,0.00,,,0.00,WUHU216HW,2013-06-23 10:58:00,
2013-06-23 07:03:00,58.6,56.9,30.17,West,270,0.0,0.0,94,0.00,,,0.00,WUHU216HW,2013-06-23 11:03:00,
2013-06-23 07:09:00,58.8,57.0,30.17,West,270,0.0,0.0,94,0.00,,,0.00,WUHU216HW,2013-06-23 11:09:00,
2013-06-23 07:14:00,59.5,57.8,30.17,West,270,0.0,0.0,94,0.00,,,0.00,WUHU216HW,2013-06-23 11:14:00,
2013-06-23 07:19:00,60.0,58.3,30.17,West,270,0.0,0.0,94,0.00,,,0.00,WUHU216HW,2013-06-23 11:19:00,
2013-06-23 07:24:00,60.4,58.7,30.17,SSE,158,0.0,0.0,94,0.00,,,0.00,WUHU216HW,2013-06-23 11:24:00,
2013-06-23 07:29:00,60.4,58.7,30.16,SSE,158,0.0,0.0,94,0.00,,,0.00,WUHU216HW,2013-06-23 11:29:00,
2013-06-23 07:34:00,60.6,58.8,30.17,SSE,158,0.0,0.0,94,0.00,,,0.00,WUHU216HW,2013-06-23 11:34:00,
2013-06-23 07:39:00,60.6,58.8,30.16,SSE,158,2.9,3.1,94,0.00,,,0.00,WUHU216HW,2013-06-23 11:39:00,
2013-06-23 07:44:00,60.6,58.8,30.17,SSE,158,3.8,3.8,94,0.00,,,0.00,WUHU216HW,2013-06-23 11:44:00,
2013-06-23 07:49:00,60.9,59.2,30.17,SSE,158,3.8,3.8,94,0.00,,,0.00,WUHU216HW,2013-06-23 11:49:00,
2013-06-23 07:54:00,61.3,59.6,30.17,SSE,158,0.0,3.8,94,0.00,,,0.00,WUHU216HW,2013-06-23 11:54:00,
2013-06-23 08:00:00,61.5,59.5,30.17,SSE,158,0.0,0.0,93,0.00,,,0.00,WUHU216HW,2013-06-23 12:00:00,
2013-06-23 08:05:00,62.2,60.5,30.16,SSE,158,0.0,0.0,94,0.00,,,0.00,WUHU216HW,2013-06-23 12:05:00,
2013-06-23 08:10:00,62.7,60.7,30.16,SSE,158,4.6,4.6,93,0.00,,,0.00,WUHU216HW,2013-06-23 12:10:00,
2013-06-23 08:15:00,62.9,60.6,30.16,SE,135,4.4,4.6,92,0.00,,,0.00,WUHU216HW,2013-06-23 12:15:00,
2013-06-23 08:20:00,63.1,59.9,30.16,SSE,158,5.1,5.1,89,0.00,,,0.00,WUHU216HW,2013-06-23 12:20:00,
2013-06-23 08:25:00,63.1,59.5,30.16,SSE,158,5.1,5.1,88,0.00,,,0.00,WUHU216HW,2013-06-23 12:25:00,
2013-06-23 08:30:00,63.1,59.2,30.16,SSE,158,6.7,6.7,87,0.00,,,0.00,WUHU216HW,2013-06-23 12:30:00,
2013-06-23 08:35:00,63.1,59.2,30.15,SSE,158,7.8,7.8,87,0.00,,,0.00,WUHU216HW,2013-06-23 12:35:00,
2013-06-23 08:41:00,63.1,58.8,30.15,SSE,158,5.8,7.8,86,0.00,,,0.00,WUHU216HW,2013-06-23 12:41:00,
2013-06-23 08:46:00,63.3,59.0,30.14,SSE,158,9.1,9.1,86,0.00,,,0.00,WUHU216HW,2013-06-23 12:46:00,
2013-06-23 08:51:00,63.1,58.8,30.14,SSE,158,5.8,9.1,86,0.00,,,0.00,WUHU216HW,2013-06-23 12:51:00,
2013-06-23 08:56:00,63.1,58.8,30.14,SSE,158,6.4,9.1,86,0.00,,,0.00,WUHU216HW,2013-06-23 12:56:00,
2013-06-23 09:01:00,63.1,58.8,30.15,SSE,158,7.6,8.9,86,0.00,,,0.00,WUHU216HW,2013-06-23 13:01:00,
2013-06-23 09:06:00,63.1,58.8,30.14,SSE,158,9.1,9.1,86,0.00,,,0.00,WUHU216HW,2013-06-23 13:06:00,
2013-06-23 09:11:00,62.9,58.7,30.14,SSE,158,7.1,9.8,86,0.00,,,0.00,WUHU216HW,2013-06-23 13:11:00,
2013-06-23 09:16:00,62.9,58.7,30.14,SSE,158,9.6,9.8,86,0.00,,,0.00,WUHU216HW,2013-06-23 13:16:00,
2013-06-23 09:21:00,63.1,59.2,30.14,SE,135,6.7,9.6,87,0.00,,,0.00,WUHU216HW,2013-06-23 13:21:00,
2013-06-23 09:26:00,63.6,59.4,30.14,SSE,158,6.7,7.3,86,0.00,,,0.00,WUHU216HW,2013-06-23 13:26:00,
2013-06-23 09:32:00,64.2,59.9,30.14,SE,135,8.0,8.0,86,0.00,,,0.00,WUHU216HW,2013-06-23 13:32:00,
2013-06-23 09:37:00,64.5,60.6,30.14,SSE,158,6.0,8.0,87,0.00,,,0.00,WUHU216HW,2013-06-23 13:37:00,
2013-06-23 09:42:00,64.7,60.8,30.14,SSE,158,10.5,10.5,87,0.00,,,0.00,WUHU216HW,2013-06-23 13:42:00,
2013-06-23 09:47:00,65.1,61.1,30.14,SSE,158,12.7,12.7,87,0.00,,,0.00,WUHU216HW,2013-06-23 13:47:00,
2013-06-23 09:53:00,65.3,61.6,30.15,South,180,8.9,12.7,88,0.00,,,0.00,WUHU216HW,2013-06-23 13:53:00,
2013-06-23 09:58:00,65.6,61.9,30.14,SSE,158,10.2,12.7,88,0.00,,,0.00,WUHU216HW,2013-06-23 13:58:00,
2013-06-23 10:03:00,66.0,62.3,30.15,SSE,158,8.9,11.6,88,0.00,,,0.00,WUHU216HW,2013-06-23 14:03:00,
2013-06-23 10:08:00,66.2,62.4,30.15,SSE,158,10.5,11.6,88,0.00,,,0.00,WUHU216HW,2013-06-23 14:08:00,
2013-06-23 10:13:00,66.3,62.9,30.15,SSE,158,8.7,11.1,89,0.00,,,0.00,WUHU216HW,2013-06-23 14:13:00,
2013-06-23 10:18:00,66.9,63.2,30.14,SSE,158,10.5,11.4,88,0.00,,,0.00,WUHU216HW,2013-06-23 14:18:00,
2013-06-23 10:23:00,67.1,63.0,30.14,SSE,158,12.0,12.0,87,0.00,,,0.00,WUHU216HW,2013-06-23 14:23:00,
2013-06-23 10:28:00,67.4,63.4,30.14,SSE,158,11.6,12.0,87,0.00,,,0.00,WUHU216HW,2013-06-23 14:28:00,
2013-06-23 10:33:00,69.0,64.6,30.15,SSE,158,6.0,11.6,86,0.00,,,0.00,WUHU216HW,2013-06-23 14:33:00,
2013-06-23 10:38:00,70.7,66.2,30.15,SSE,158,2.9,8.2,86,0.00,,,0.00,WUHU216HW,2013-06-23 14:38:00,
2013-06-23 10:43:00,75.0,69.5,30.16,SSW,203,0.0,9.8,83,0.00,,,0.00,WUHU216HW,2013-06-23 14:43:00,
2013-06-23 10:49:00,77.5,70.1,30.15,SW,225,4.0,9.8,78,0.00,,,0.00,WUHU216HW,2013-06-23 14:49:00,
2013-06-23 10:54:00,78.9,70.3,30.16,SSE,158,0.0,4.0,75,0.00,,,0.00,WUHU216HW,2013-06-23 14:54:00,
2013-06-23 10:59:00,81.1,71.2,30.16,SSW,203,0.0,3.3,72,0.00,,,0.00,WUHU216HW,2013-06-23 14:59:00,
2013-06-23 11:04:00,82.7,71.9,30.17,SE,135,1.3,3.3,70,0.00,,,0.00,WUHU216HW,2013-06-23 15:04:00,
2013-06-23 11:09:00,84.0,71.4,30.17,South,180,1.3,1.3,66,0.00,,,0.00,WUHU216HW,2013-06-23 15:09:00,
2013-06-23 11:14:00,85.4,72.3,30.17,SSW,203,3.8,3.8,65,0.00,,,0.00,WUHU216HW,2013-06-23 15:14:00,
2013-06-23 11:19:00,86.7,72.1,30.17,NNE,23,0.0,4.2,62,0.00,,,0.00,WUHU216HW,2013-06-23 15:19:00,
2013-06-23 11:24:00,88.1,72.6,30.17,NW,315,0.0,4.2,60,0.00,,,0.00,WUHU216HW,2013-06-23 15:24:00,
2013-06-23 11:29:00,89.4,72.6,30.17,NNW,338,0.0,3.8,58,0.00,,,0.00,WUHU216HW,2013-06-23 15:29:00,
2013-06-23 11:34:00,91.0,73.0,30.18,SW,225,3.8,3.8,56,0.00,,,0.00,WUHU216HW,2013-06-23 15:34:00,
2013-06-23 11:39:00,91.9,73.3,30.17,North,0,0.0,3.8,55,0.00,,,0.00,WUHU216HW,2013-06-23 15:39:00,
2013-06-23 11:45:00,93.0,73.2,30.17,SSW,203,3.5,3.5,53,0.00,,,0.00,WUHU216HW,2013-06-23 15:45:00,
2013-06-23 11:50:00,91.9,72.7,30.17,SW,225,2.6,3.5,53,0.00,,,0.00,WUHU216HW,2013-06-23 15:50:00,
2013-06-23 11:55:00,91.9,72.8,30.17,SSW,203,2.2,3.1,54,0.00,,,0.00,WUHU216HW,2013-06-23 15:55:00,
2013-06-23 12:00:00,92.3,73.1,30.17,NW,315,0.0,2.6,54,0.00,,,0.00,WUHU216HW,2013-06-23 16:00:00,
2013-06-23 12:05:00,92.1,72.9,30.17,SSE,158,0.0,2.2,53,0.00,,,0.00,WUHU216HW,2013-06-23 16:05:00,
2013-06-23 12:10:00,92.1,72.9,30.17,West,270,1.7,1.7,54,0.00,,,0.00,WUHU216HW,2013-06-23 16:10:00,
2013-06-23 12:15:00,92.1,72.9,30.16,SW,225,2.4,2.4,54,0.00,,,0.00,WUHU216HW,2013-06-23 16:15:00,
2013-06-23 12:20:00,91.5,73.0,30.16,WSW,248,0.0,2.4,55,0.00,,,0.00,WUHU216HW,2013-06-23 16:20:00,
2013-06-23 12:25:00,90.5,72.0,30.16,SSW,203,1.7,2.4,55,0.00,,,0.00,WUHU216HW,2013-06-23 16:25:00,
2013-06-23 12:30:00,89.7,71.9,30.16,NNW,338,0.0,1.7,56,0.00,,,0.00,WUHU216HW,2013-06-23 16:30:00,
2013-06-23 12:36:00,90.1,72.2,30.16,SSW,203,0.0,0.0,56,0.00,,,0.00,WUHU216HW,2013-06-23 16:36:00,
2013-06-23 12:41:00,91.5,73.0,30.16,NNW,338,0.0,2.0,55,0.00,,,0.00,WUHU216HW,2013-06-23 16:41:00,
2013-06-23 12:46:00,93.5,73.7,30.16,North,0,0.0,2.0,53,0.00,,,0.00,WUHU216HW,2013-06-23 16:46:00,
2013-06-23 12:51:00,95.5,74.0,30.16,SSW,203,1.7,2.4,50,0.00,,,0.00,WUHU216HW,2013-06-23 16:51:00,
2013-06-23 12:56:00,95.3,73.9,30.15,East,90,0.0,2.4,50,0.00,,,0.00,WUHU216HW,2013-06-23 16:56:00,
2013-06-23 12:57:00,95.5,74.0,30.15,North,0,0.0,2.4,50,0.00,,,0.00,WUHU216HW,2013-06-23 16:57:00,
2013-06-23 12:58:00,95.5,74.0,30.15,North,0,0.0,2.4,50,0.00,,,0.00,WUHU216HW,2013-06-23 16:58:00,
2013-06-23 13:03:00,95.1,73.7,30.15,North,0,0.0,0.0,50,0.00,,,0.00,WUHU216HW,2013-06-23 17:03:00,
2013-06-23 13:09:00,96.9,74.0,30.15,SSE,158,0.0,0.0,48,0.00,,,0.00,WUHU216HW,2013-06-23 17:09:00,
2013-06-23 13:14:00,97.3,73.6,30.15,SSW,203,2.6,2.6,47,0.00,,,0.00,WUHU216HW,2013-06-23 17:14:00,
2013-06-23 13:19:00,98.2,73.1,30.15,West,270,0.0,2.6,45,0.00,,,0.00,WUHU216HW,2013-06-23 17:19:00,
2013-06-23 13:24:00,96.9,73.3,30.15,WSW,248,0.0,2.6,47,0.00,,,0.00,WUHU216HW,2013-06-23 17:24:00,
2013-06-23 13:29:00,99.1,74.6,30.15,North,0,0.0,0.0,46,0.00,,,0.00,WUHU216HW,2013-06-23 17:29:00,
2013-06-23 13:34:00,100.7,74.7,30.14,NNW,338,2.2,2.2,44,0.00,,,0.00,WUHU216HW,2013-06-23 17:34:00,
2013-06-23 13:39:00,99.5,73.4,30.15,ENE,68,0.0,2.2,44,0.00,,,0.00,WUHU216HW,2013-06-23 17:39:00,
2013-06-23 13:44:00,99.6,72.4,30.14,West,270,0.0,4.4,42,0.00,,,0.00,WUHU216HW,2013-06-23 17:44:00,
2013-06-23 13:49:00,99.3,73.4,30.14,NNE,23,2.0,4.4,44,0.00,,,0.00,WUHU216HW,2013-06-23 17:49:00,
2013-06-23 13:54:00,101.8,73.7,30.14,North,0,0.0,2.0,41,0.00,,,0.00,WUHU216HW,2013-06-23 17:54:00,
2013-06-23 13:59:00,102.0,72.3,30.14,SSW,203,0.0,1.7,39,0.00,,,0.00,WUHU216HW,2013-06-23 17:59:00,
2013-06-23 14:04:00,103.2,73.5,30.14,South,180,0.0,0.0,39,0.00,,,0.00,WUHU216HW,2013-06-23 18:04:00,
2013-06-23 14:10:00,103.8,73.1,30.13,NE,45,0.0,0.0,38,0.00,,,0.00,WUHU216HW,2013-06-23 18:10:00,
2013-06-23 14:15:00,104.1,73.4,30.14,NW,315,2.4,2.4,38,0.00,,,0.00,WUHU216HW,2013-06-23 18:15:00,
2013-06-23 14:20:00,104.9,73.2,30.13,NW,315,0.0,2.4,37,0.00,,,0.00,WUHU216HW,2013-06-23 18:20:00,
2013-06-23 14:25:00,105.4,72.8,30.13,SW,225,9.6,9.6,36,0.00,,,0.00,WUHU216HW,2013-06-23 18:25:00,
2013-06-23 14:30:00,105.2,73.5,30.13,NNW,338,0.0,9.6,37,0.00,,,0.00,WUHU216HW,2013-06-23 18:30:00,
2013-06-23 14:35:00,106.7,73.1,30.12,SSW,203,1.5,9.6,35,0.00,,,0.00,WUHU216HW,2013-06-23 18:35:00,
2013-06-23 14:40:00,105.9,73.3,30.12,SSW,203,0.0,7.6,36,0.00,,,0.00,WUHU216HW,2013-06-23 18:40:00,
2013-06-23 14:45:00,105.0,72.5,30.13,WSW,248,0.8,6.0,36,0.00,,,0.00,WUHU216HW,2013-06-23 18:45:00,
2013-06-23 14:50:00,104.9,72.4,30.12,SSW,203,3.1,3.1,36,0.00,,,0.00,WUHU216HW,2013-06-23 18:50:00,
2013-06-23 14:55:00,105.4,72.0,30.12,WNW,293,0.0,3.1,35,0.00,,,0.00,WUHU216HW,2013-06-23 18:55:00,
2013-06-23 15:01:00,104.7,73.0,30.12,SW,225,1.7,1.7,37,0.00,,,0.00,WUHU216HW,2013-06-23 19:01:00,
2013-06-23 15:06:00,104.7,73.0,30.12,SW,225,0.0,1.7,37,0.00,,,0.00,WUHU216HW,2013-06-23 19:06:00,
2013-06-23 15:11:00,105.6,73.0,30.12,West,270,0.0,1.7,36,0.00,,,0.00,WUHU216HW,2013-06-23 19:11:00,
2013-06-23 15:16:00,106.7,73.1,30.12,South,180,0.0,1.5,35,0.00,,,0.00,WUHU216HW,2013-06-23 19:16:00,
2013-06-23 15:21:00,106.7,73.1,30.12,NW,315,3.8,3.8,35,0.00,,,0.00,WUHU216HW,2013-06-23 19:21:00,
2013-06-23 15:26:00,102.7,70.5,30.12,South,180,0.0,3.8,36,0.00,,,0.00,WUHU216HW,2013-06-23 19:26:00,
2013-06-23 15:31:00,100.2,70.7,30.12,WSW,248,3.1,3.1,39,0.00,,,0.00,WUHU216HW,2013-06-23 19:31:00,
2013-06-23 15:37:00,100.9,72.2,30.12,South,180,0.0,3.1,40,0.00,,,0.00,WUHU216HW,2013-06-23 19:37:00,
2013-06-23 15:42:00,101.8,71.3,30.12,SW,225,1.5,2.2,38,0.00,,,0.00,WUHU216HW,2013-06-23 19:42:00,
2013-06-23 15:47:00,102.0,71.5,30.12,SSW,203,1.3,2.2,38,0.00,,,0.00,WUHU216HW,2013-06-23 19:47:00,
2013-06-23 15:52:00,100.9,70.5,30.13,SW,225,2.9,2.9,38,0.00,,,0.00,WUHU216HW,2013-06-23 19:52:00,
2013-06-23 15:57:00,101.1,71.5,30.12,WSW,248,0.0,2.9,39,0.00,,,0.00,WUHU216HW,2013-06-23 19:57:00,
2013-06-23 16:02:00,102.0,71.5,30.12,SW,225,0.0,2.9,38,0.00,,,0.00,WUHU216HW,2013-06-23 20:02:00,
2013-06-23 16:07:00,102.0,71.5,30.12,South,180,0.0,4.0,38,0.00,,,0.00,WUHU216HW,2013-06-23 20:07:00,
2013-06-23 16:12:00,101.1,71.5,30.12,SW,225,0.0,4.0,39,0.00,,,0.00,WUHU216HW,2013-06-23 20:12:00,
2013-06-23 16:17:00,100.7,71.2,30.12,SSW,203,0.0,0.0,39,0.00,,,0.00,WUHU216HW,2013-06-23 20:17:00,
2013-06-23 16:22:00,98.9,68.8,30.12,South,180,7.6,7.6,38,0.00,,,0.00,WUHU216HW,2013-06-23 20:22:00,
2013-06-23 16:27:00,98.2,69.8,30.12,SSW,203,5.5,7.6,40,0.00,,,0.00,WUHU216HW,2013-06-23 20:27:00,
2013-06-23 16:32:00,100.7,69.6,30.12,WNW,293,1.1,5.5,37,0.00,,,0.00,WUHU216HW,2013-06-23 20:32:00,
2013-06-23 16:37:00,102.0,71.5,30.12,South,180,2.6,2.6,38,0.00,,,0.00,WUHU216HW,2013-06-23 20:37:00,
2013-06-23 16:42:00,103.2,70.9,30.12,WSW,248,2.0,2.6,36,0.00,,,0.00,WUHU216HW,2013-06-23 20:42:00,
2013-06-23 16:48:00,103.2,70.9,30.11,WSW,248,0.0,2.0,36,0.00,,,0.00,WUHU216HW,2013-06-23 20:48:00,
2013-06-23 16:53:00,102.0,70.7,30.11,SW,225,4.6,4.6,37,0.00,,,0.00,WUHU216HW,2013-06-23 20:53:00,
2013-06-23 16:58:00,102.0,71.5,30.11,WNW,293,0.0,4.6,38,0.00,,,0.00,WUHU216HW,2013-06-23 20:58:00,
2013-06-23 17:03:00,102.9,71.5,30.11,SW,225,1.3,1.3,37,0.00,,,0.00,WUHU216HW,2013-06-23 21:03:00,
2013-06-23 17:08:00,102.7,72.1,30.11,SSE,158,5.3,5.3,38,0.00,,,0.00,WUHU216HW,2013-06-23 21:08:00,
2013-06-23 17:13:00,101.3,70.9,30.11,SSW,203,0.0,5.3,38,0.00,,,0.00,WUHU216HW,2013-06-23 21:13:00,
2013-06-23 17:18:00,99.5,70.1,30.11,NW,315,2.6,4.2,39,0.00,,,0.00,WUHU216HW,2013-06-23 21:18:00,
2013-06-23 17:23:00,98.2,70.5,30.12,WNW,293,1.1,4.2,41,0.00,,,0.00,WUHU216HW,2013-06-23 21:23:00,
2013-06-23 17:28:00,96.6,69.7,30.12,WSW,248,0.0,2.9,42,0.00,,,0.00,WUHU216HW,2013-06-23 21:28:00,
2013-06-23 17:33:00,96.4,70.2,30.12,SW,225,0.0,6.2,43,0.00,,,0.00,WUHU216HW,2013-06-23 21:33:00,
2013-06-23 17:38:00,96.6,70.3,30.11,West,270,0.0,6.2,43,0.00,,,0.00,WUHU216HW,2013-06-23 21:38:00,
2013-06-23 17:43:00,97.1,70.8,30.12,SSE,158,4.6,4.6,43,0.00,,,0.00,WUHU216HW,2013-06-23 21:43:00,
2013-06-23 17:48:00,96.0,69.8,30.11,ESE,113,0.0,4.6,43,0.00,,,0.00,WUHU216HW,2013-06-23 21:48:00,
2013-06-23 17:53:00,95.1,69.7,30.10,West,270,0.0,4.6,44,0.00,,,0.00,WUHU216HW,2013-06-23 21:53:00,
2013-06-23 17:58:00,94.4,69.7,30.11,SSW,203,4.0,4.0,45,0.00,,,0.00,WUHU216HW,2013-06-23 21:58:00,
2013-06-23 18:03:00,95.1,70.4,30.10,NNW,338,5.8,5.8,45,0.00,,,0.00,WUHU216HW,2013-06-23 22:03:00,
2013-06-23 18:08:00,96.8,71.2,30.09,South,180,3.3,6.2,44,0.00,,,0.00,WUHU216HW,2013-06-23 22:08:00,
2013-06-23 18:14:00,97.5,71.1,30.09,SSE,158,2.6,6.2,43,0.00,,,0.00,WUHU216HW,2013-06-23 22:14:00,
2013-06-23 18:19:00,97.7,71.3,30.09,SW,225,0.0,3.3,43,0.00,,,0.00,WUHU216HW,2013-06-23 22:19:00,
2013-06-23 18:24:00,96.0,70.7,30.09,South,180,0.8,2.6,43,0.00,,,0.00,WUHU216HW,2013-06-23 22:24:00,
2013-06-23 18:29:00,94.8,70.0,30.09,SSE,158,2.4,2.4,45,0.00,,,0.00,WUHU216HW,2013-06-23 22:29:00,
2013-06-23 18:34:00,93.9,69.8,30.09,SSW,203,0.0,2.4,46,0.00,,,0.00,WUHU216HW,2013-06-23 22:34:00,
2013-06-23 18:39:00,92.3,69.6,30.09,North,0,0.0,2.4,48,0.00,,,0.00,WUHU216HW,2013-06-23 22:39:00,
2013-06-23 18:44:00,91.5,69.6,30.08,SW,225,2.0,2.0,49,0.00,,,0.00,WUHU216HW,2013-06-23 22:44:00,
2013-06-23 18:49:00,91.0,69.1,30.09,SSW,203,0.0,2.0,49,0.00,,,0.00,WUHU216HW,2013-06-23 22:49:00,
2013-06-23 18:54:00,90.3,69.7,30.09,SW,225,0.0,2.0,51,0.00,,,0.00,WUHU216HW,2013-06-23 22:54:00,
2013-06-23 18:59:00,89.7,69.2,30.09,WNW,293,0.0,0.8,51,0.00,,,0.00,WUHU216HW,2013-06-23 22:59:00,
2013-06-23 19:04:00,88.8,68.9,30.09,South,180,0.0,3.1,52,0.00,,,0.00,WUHU216HW,2013-06-23 23:04:00,
2013-06-23 19:09:00,88.5,69.1,30.08,North,0,0.0,3.1,53,0.00,,,0.00,WUHU216HW,2013-06-23 23:09:00,
2013-06-23 19:14:00,88.3,69.0,30.09,West,270,0.0,0.0,53,0.00,,,0.00,WUHU216HW,2013-06-23 23:14:00,
2013-06-23 19:20:00,87.9,69.2,30.08,SW,225,0.0,0.0,54,0.00,,,0.00,WUHU216HW,2013-06-23 23:20:00,
2013-06-23 19:25:00,87.6,69.4,30.08,SSW,203,6.2,6.2,55,0.00,,,0.00,WUHU216HW,2013-06-23 23:25:00,
2013-06-23 19:30:00,87.4,69.2,30.08,ESE,113,1.5,6.2,55,0.00,,,0.00,WUHU216HW,2013-06-23 23:30:00,
2013-06-23 19:35:00,87.2,69.0,30.08,SSE,158,9.3,9.3,55,0.00,,,0.00,WUHU216HW,2013-06-23 23:35:00,
2013-06-23 19:40:00,86.1,68.5,30.08,SSE,158,6.9,11.4,56,0.00,,,0.00,WUHU216HW,2013-06-23 23:40:00,
2013-06-23 19:45:00,83.8,68.9,30.08,South,180,5.5,11.4,61,0.00,,,0.00,WUHU216HW,2013-06-23 23:45:00,
2013-06-23 19:50:00,82.0,68.5,30.08,SSE,158,4.0,11.4,64,0.00,,,0.00,WUHU216HW,2013-06-23 23:50:00,
2013-06-23 19:55:00,82.0,69.4,30.08,SSE,158,7.6,8.2,66,0.00,,,0.00,WUHU216HW,2013-06-23 23:55:00,
2013-06-23 20:00:00,81.1,69.1,30.08,SSE,158,12.0,12.0,67,0.00,,,0.00,WUHU216HW,2013-06-24 00:00:00,
2013-06-23 20:05:00,79.5,68.0,30.08,SSE,158,4.9,12.0,68,0.00,,,0.00,WUHU216HW,2013-06-24 00:05:00,
2013-06-23 20:10:00,77.7,67.9,30.08,SSE,158,3.8,12.0,72,0.00,,,0.00,WUHU216HW,2013-06-24 00:10:00,
2013-06-23 20:15:00,77.5,68.1,30.08,SSE,158,4.9,8.9,73,0.00,,,0.00,WUHU216HW,2013-06-24 00:15:00,
2013-06-23 20:21:00,77.1,68.2,30.08,South,180,4.6,6.4,74,0.00,,,0.00,WUHU216HW,2013-06-24 00:21:00,
2013-06-23 20:26:00,76.6,67.7,30.08,SE,135,0.0,6.4,74,0.00,,,0.00,WUHU216HW,2013-06-24 00:26:00,
2013-06-23 20:31:00,76.2,67.3,30.08,SSE,158,3.1,4.4,74,0.00,,,0.00,WUHU216HW,2013-06-24 00:31:00,
2013-06-23 20:36:00,76.2,67.3,30.09,SSE,158,0.0,3.1,74,0.00,,,0.00,WUHU216HW,2013-06-24 00:36:00,
2013-06-23 20:41:00,76.6,67.9,30.08,SW,225,0.0,3.1,74,0.00,,,0.00,WUHU216HW,2013-06-24 00:41:00,
2013-06-23 20:46:00,77.0,67.6,30.08,South,180,0.0,0.0,73,0.00,,,0.00,WUHU216HW,2013-06-24 00:46:00,
2013-06-23 20:51:00,77.5,67.8,30.09,SW,225,0.0,0.0,72,0.00,,,0.00,WUHU216HW,2013-06-24 00:51:00,
2013-06-23 20:56:00,78.0,67.9,30.09,WNW,293,0.0,0.0,71,0.00,,,0.00,WUHU216HW,2013-06-24 00:56:00,
2013-06-23 21:01:00,78.0,67.9,30.08,SW,225,0.0,0.0,71,0.00,,,0.00,WUHU216HW,2013-06-24 01:01:00,
2013-06-23 21:06:00,78.2,67.6,30.09,WSW,248,0.0,0.0,70,0.00,,,0.00,WUHU216HW,2013-06-24 01:06:00,
2013-06-23 21:11:00,78.0,67.5,30.08,WSW,248,0.0,0.0,70,0.00,,,0.00,WUHU216HW,2013-06-24 01:11:00,
2013-06-23 21:16:00,77.9,67.3,30.09,NE,45,0.0,0.0,70,0.00,,,0.00,WUHU216HW,2013-06-24 01:16:00,
2013-06-23 21:22:00,77.7,67.5,30.09,WSW,248,0.0,3.5,71,0.00,,,0.00,WUHU216HW,2013-06-24 01:22:00,
2013-06-23 21:27:00,77.7,67.5,30.09,SW,225,0.0,3.5,71,0.00,,,0.00,WUHU216HW,2013-06-24 01:27:00,
2013-06-23 21:32:00,77.5,67.4,30.09,ESE,113,0.0,0.0,71,0.00,,,0.00,WUHU216HW,2013-06-24 01:32:00,
2013-06-23 21:37:00,77.5,67.0,30.09,SSW,203,0.0,0.0,70,0.00,,,0.00,WUHU216HW,2013-06-24 01:37:00,
2013-06-23 21:42:00,77.5,67.0,30.09,SSW,203,0.0,0.0,70,0.00,,,0.00,WUHU216HW,2013-06-24 01:42:00,
2013-06-23 21:47:00,77.1,67.1,30.10,SW,225,0.0,0.0,71,0.00,,,0.00,WUHU216HW,2013-06-24 01:47:00,
2013-06-23 21:52:00,77.0,66.5,30.10,SSW,203,0.0,0.0,70,0.00,,,0.00,WUHU216HW,2013-06-24 01:52:00,
2013-06-23 21:57:00,76.8,66.3,30.10,WSW,248,0.0,0.0,70,0.00,,,0.00,WUHU216HW,2013-06-24 01:57:00,
2013-06-23 22:02:00,76.8,66.3,30.11,SSW,203,0.0,0.0,70,0.00,,,0.00,WUHU216HW,2013-06-24 02:02:00,
2013-06-23 22:08:00,76.8,65.9,30.10,South,180,0.0,0.0,69,0.00,,,0.00,WUHU216HW,2013-06-24 02:08:00,
2013-06-23 22:13:00,77.0,66.1,30.11,WSW,248,0.0,0.0,69,0.00,,,0.00,WUHU216HW,2013-06-24 02:13:00,
2013-06-23 22:18:00,77.1,65.8,30.12,NNW,338,0.0,0.0,68,0.00,,,0.00,WUHU216HW,2013-06-24 02:18:00,
2013-06-23 22:23:00,77.1,65.8,30.11,WNW,293,0.0,0.0,68,0.00,,,0.00,WUHU216HW,2013-06-24 02:23:00,
2013-06-23 22:28:00,76.8,65.4,30.12,West,270,0.0,0.0,68,0.00,,,0.00,WUHU216HW,2013-06-24 02:28:00,
2013-06-23 22:33:00,76.8,65.4,30.11,SSW,203,0.0,0.0,68,0.00,,,0.00,WUHU216HW,2013-06-24 02:33:00,
2013-06-23 22:38:00,76.2,64.9,30.12,WSW,248,0.0,0.0,68,0.00,,,0.00,WUHU216HW,2013-06-24 02:38:00,
2013-06-23 22:43:00,75.9,65.0,30.12,SSE,158,0.0,0.0,69,0.00,,,0.00,WUHU216HW,2013-06-24 02:43:00,
2013-06-23 22:48:00,75.7,64.8,30.11,SSE,158,0.0,0.0,69,0.00,,,0.00,WUHU216HW,2013-06-24 02:48:00,
2013-06-23 22:54:00,75.3,64.4,30.10,South,180,0.0,0.0,69,0.00,,,0.00,WUHU216HW,2013-06-24 02:54:00,
2013-06-23 22:59:00,75.3,64.4,30.10,SSW,203,0.0,0.0,69,0.00,,,0.00,WUHU216HW,2013-06-24 02:59:00,
2013-06-23 23:04:00,75.0,64.5,30.11,NNW,338,0.0,0.0,70,0.00,,,0.00,WUHU216HW,2013-06-24 03:04:00,
2013-06-23 23:09:00,74.8,64.4,30.11,NNW,338,0.0,0.0,70,0.00,,,0.00,WUHU216HW,2013-06-24 03:09:00,
2013-06-23 23:14:00,74.4,64.4,30.11,West,270,0.0,0.0,71,0.00,,,0.00,WUHU216HW,2013-06-24 03:14:00,
2013-06-23 23:19:00,74.1,64.1,30.11,West,270,0.0,0.0,71,0.00,,,0.00,WUHU216HW,2013-06-24 03:19:00,
2013-06-23 23:24:00,73.5,64.0,30.11,SSW,203,0.0,0.0,72,0.00,,,0.00,WUHU216HW,2013-06-24 03:24:00,
2013-06-23 23:29:00,73.2,64.0,30.10,SSW,203,0.0,0.0,73,0.00,,,0.00,WUHU216HW,2013-06-24 03:29:00,
2013-06-23 23:34:00,73.0,63.9,30.12,WSW,248,0.0,0.0,73,0.00,,,0.00,WUHU216HW,2013-06-24 03:34:00,
2013-06-23 23:39:00,72.6,63.5,30.12,West,270,0.0,0.0,73,0.00,,,0.00,WUHU216HW,2013-06-24 03:39:00,
2013-06-23 23:45:00,72.3,63.5,30.12,SW,225,0.0,0.0,74,0.00,,,0.00,WUHU216HW,2013-06-24 03:45:00,
2013-06-23 23:50:00,72.3,63.9,30.12,WSW,248,0.0,0.0,75,0.00,,,0.00,WUHU216HW,2013-06-24 03:50:00,
2013-06-23 23:55:00,72.1,63.7,30.12,WSW,248,0.0,0.0,75,0.00,,,0.00,WUHU216HW,2013-06-24 03:55:00,